Terminal Aerodrome Forecast
Issued by NWS

Home | Current Version | Previous Version | Text Only | Print | Product List | Glossary On
Versions: 1 2 3 4 5 6 7 8 9 10 11 12 13 14 15 16
000
FTUS45 KABQ 301100
TAFTCC
TAF
KTCC 301120Z 3012/0112 25010KT P6SM FEW060
     FM301800 25015G25KT P6SM SKC
     FM010200 24010KT P6SM SKC=

USA.gov is the U.S. government's official web portal to all federal, state and local government web resources and services.